Time;durP1;ratioP1;P1;durP2;ratioP2;P2;SDS_P1;SDS_P2;PMS_P1;PMS_P2;Temp;Humidity;BMP_temperature;BMP_pressure;BME280_temperature;BME280_humidity;BME280_pressure;Samples;Min_cycle;Max_cycle;Signal;HPM_P1;HPM_P2
2021/12/27 00:01:18;;;;;;;7.07;6.30;;;;;;;;;;5033478;28;20414;-65
2021/12/27 00:03:45;;;;;;;7.43;6.60;;;;;;;;;;5033316;28;20419;-66
2021/12/27 00:06:11;;;;;;;8.00;5.80;;;;;;;;;;5033279;28;20900;-66
2021/12/27 00:08:40;;;;;;;7.13;6.43;;;;;;;;;;5033294;28;21013;-66
2021/12/27 00:11:07;;;;;;;6.43;5.70;;;;;;;;;;5033639;28;20414;-65
2021/12/27 00:13:33;;;;;;;8.30;6.47;;;;;;;;;;5033086;28;20920;-66
2021/12/27 00:15:59;;;;;;;7.63;6.10;;;;;;;;;;5033508;28;20821;-66
2021/12/27 00:18:25;;;;;;;8.30;6.63;;;;;;;;;;5033432;28;20771;-65
2021/12/27 00:20:51;;;;;;;8.37;7.03;;;;;;;;;;5033372;28;20454;-66
2021/12/27 00:23:17;;;;;;;10.07;7.43;;;;;;;;;;5033403;28;20825;-65
2021/12/27 00:25:43;;;;;;;8.17;6.33;;;;;;;;;;5032644;28;20472;-66
2021/12/27 00:28:09;;;;;;;8.00;6.17;;;;;;;;;;5032913;28;20426;-66
2021/12/27 00:30:38;;;;;;;6.10;5.47;;;;;;;;;;5033337;28;20419;-66
2021/12/27 00:33:04;;;;;;;5.83;5.33;;;;;;;;;;5033269;28;20759;-66
2021/12/27 00:35:32;;;;;;;6.90;5.70;;;;;;;;;;5033246;28;20479;-65
2021/12/27 00:37:58;;;;;;;5.83;5.23;;;;;;;;;;5033317;28;20833;-66
2021/12/27 00:40:24;;;;;;;8.70;6.03;;;;;;;;;;5032901;28;20406;-66
2021/12/27 00:42:50;;;;;;;10.40;6.27;;;;;;;;;;5032948;28;20426;-66
2021/12/27 00:45:17;;;;;;;6.87;5.40;;;;;;;;;;5033271;28;20420;-66
2021/12/27 00:47:43;;;;;;;6.77;6.07;;;;;;;;;;5033211;28;20410;-65
2021/12/27 00:50:09;;;;;;;7.33;5.00;;;;;;;;;;5032954;28;20446;-66
2021/12/27 00:52:35;;;;;;;6.20;5.43;;;;;;;;;;5033168;28;20833;-65
2021/12/27 00:55:03;;;;;;;8.67;6.30;;;;;;;;;;5033490;28;20430;-65
2021/12/27 00:57:29;;;;;;;6.23;5.20;;;;;;;;;;5033115;28;20406;-66
2021/12/27 00:59:55;;;;;;;6.13;4.97;;;;;;;;;;5032773;28;20414;-66
2021/12/27 01:02:21;;;;;;;6.70;5.37;;;;;;;;;;5032675;28;20946;-65
2021/12/27 01:04:47;;;;;;;8.07;6.07;;;;;;;;;;5031376;28;20577;-65
2021/12/27 01:07:13;;;;;;;6.90;5.73;;;;;;;;;;5032727;28;20406;-65
2021/12/27 01:12:46;;;;;;;5.37;4.70;;;;;;;;;;5032988;28;20525;-66
2021/12/27 01:17:43;;;;;;;6.73;4.70;;;;;;;;;;5032979;28;20407;-66
2021/12/27 01:20:10;;;;;;;7.13;5.50;;;;;;;;;;5032583;28;20824;-67
2021/12/27 01:22:36;;;;;;;7.27;5.77;;;;;;;;;;5032472;28;20439;-66
2021/12/27 01:25:03;;;;;;;6.10;5.50;;;;;;;;;;5032774;28;20407;-67
2021/12/27 01:27:30;;;;;;;7.50;5.17;;;;;;;;;;5032649;28;20772;-67
2021/12/27 01:29:56;;;;;;;6.87;4.50;;;;;;;;;;5032519;28;20786;-68
2021/12/27 01:32:24;;;;;;;5.70;5.10;;;;;;;;;;5032733;28;20426;-66
2021/12/27 01:34:50;;;;;;;5.20;4.37;;;;;;;;;;5032465;28;20399;-67
2021/12/27 01:37:18;;;;;;;5.50;4.60;;;;;;;;;;5033917;28;20438;-66
2021/12/27 01:39:44;;;;;;;5.50;4.60;;;;;;;;;;5035981;28;20407;-66
2021/12/27 01:42:10;;;;;;;5.97;4.37;;;;;;;;;;5035809;28;20426;-67
2021/12/27 01:44:36;;;;;;;6.03;4.90;;;;;;;;;;5036143;28;20437;-66
2021/12/27 01:47:02;;;;;;;5.43;4.90;;;;;;;;;;5036081;28;20418;-66
2021/12/27 01:49:28;;;;;;;5.40;4.77;;;;;;;;;;5035727;28;20553;-66
2021/12/27 01:51:55;;;;;;;6.63;5.37;;;;;;;;;;5035650;28;20411;-65
2021/12/27 01:54:21;;;;;;;6.00;5.03;;;;;;;;;;5035705;28;20453;-66
2021/12/27 01:56:47;;;;;;;5.10;4.60;;;;;;;;;;5035696;28;20434;-66
2021/12/27 01:59:13;;;;;;;5.40;4.60;;;;;;;;;;5035605;28;20394;-65
2021/12/27 02:01:39;;;;;;;6.23;5.17;;;;;;;;;;5035584;28;20857;-66
2021/12/27 02:04:05;;;;;;;6.93;4.70;;;;;;;;;;5035691;28;20403;-66
2021/12/27 02:06:31;;;;;;;5.47;4.80;;;;;;;;;;5035474;28;20454;-66
2021/12/27 02:08:57;;;;;;;6.07;4.20;;;;;;;;;;5035389;28;20457;-66
2021/12/27 02:11:23;;;;;;;5.80;4.63;;;;;;;;;;5035418;28;20453;-66
2021/12/27 02:13:49;;;;;;;5.43;4.73;;;;;;;;;;5035209;28;20419;-66
2021/12/27 02:16:17;;;;;;;4.60;3.90;;;;;;;;;;5035340;28;20403;-66
2021/12/27 02:18:44;;;;;;;4.17;3.77;;;;;;;;;;5035502;28;20769;-65
2021/12/27 02:21:10;;;;;;;5.90;4.80;;;;;;;;;;5035212;28;20414;-65
2021/12/27 02:23:38;;;;;;;5.00;4.50;;;;;;;;;;5035395;28;20423;-65
2021/12/27 02:26:05;;;;;;;5.73;4.00;;;;;;;;;;5035455;28;20398;-66
2021/12/27 02:28:31;;;;;;;5.70;4.10;;;;;;;;;;5034975;28;20466;-66
2021/12/27 02:30:57;;;;;;;5.20;4.70;;;;;;;;;;5035016;28;20486;-66
2021/12/27 02:33:23;;;;;;;5.03;3.70;;;;;;;;;;5035026;28;20428;-66
2021/12/27 02:35:51;;;;;;;5.27;4.30;;;;;;;;;;5034991;28;20442;-66
2021/12/27 02:38:18;;;;;;;5.47;4.57;;;;;;;;;;5035064;28;20401;-66
2021/12/27 02:40:45;;;;;;;5.00;4.23;;;;;;;;;;5034972;28;20410;-66
2021/12/27 02:43:11;;;;;;;4.83;4.30;;;;;;;;;;5034757;28;20429;-66
2021/12/27 02:45:41;;;;;;;6.90;3.97;;;;;;;;;;5034971;28;20406;-66
2021/12/27 02:48:07;;;;;;;5.37;4.13;;;;;;;;;;5033144;28;20410;-66
2021/12/27 02:50:35;;;;;;;3.93;3.53;;;;;;;;;;5025888;28;20566;-64
2021/12/27 02:53:01;;;;;;;6.27;4.80;;;;;;;;;;5026125;28;20430;-66
2021/12/27 02:55:27;;;;;;;5.20;3.83;;;;;;;;;;5034902;28;20403;-66
2021/12/27 02:57:53;;;;;;;3.97;3.57;;;;;;;;;;5033356;28;20407;-66
2021/12/27 03:00:46;;;;;;;4.43;3.43;;;;;;;;;;5034534;28;20803;-66
2021/12/27 03:03:12;;;;;;;4.97;3.87;;;;;;;;;;5031671;28;20484;-66
2021/12/27 03:05:38;;;;;;;3.73;3.30;;;;;;;;;;5034660;28;20836;-66
2021/12/27 03:08:04;;;;;;;5.20;3.37;;;;;;;;;;5035011;28;20761;-66
2021/12/27 03:10:33;;;;;;;4.57;3.87;;;;;;;;;;5034588;28;20454;-66
2021/12/27 03:13:00;;;;;;;7.10;3.63;;;;;;;;;;5034413;28;20473;-66
2021/12/27 03:15:27;;;;;;;4.03;3.57;;;;;;;;;;5034210;28;20497;-66
2021/12/27 03:17:54;;;;;;;4.33;3.33;;;;;;;;;;5034187;28;20406;-66
2021/12/27 03:20:21;;;;;;;11.40;4.83;;;;;;;;;;5034318;28;20410;-66
2021/12/27 03:22:48;;;;;;;3.83;3.50;;;;;;;;;;5034041;28;20995;-66
2021/12/27 03:25:16;;;;;;;4.20;3.47;;;;;;;;;;5033987;28;20899;-66
2021/12/27 03:27:42;;;;;;;5.93;3.63;;;;;;;;;;5033851;28;20501;-65
2021/12/27 03:30:14;;;;;;;4.23;2.90;;;;;;;;;;5034231;28;20849;-66
2021/12/27 03:32:40;;;;;;;8.03;3.30;;;;;;;;;;5033840;28;20414;-66
2021/12/27 03:35:10;;;;;;;4.17;3.50;;;;;;;;;;5033908;28;20399;-66
2021/12/27 03:37:38;;;;;;;4.77;3.47;;;;;;;;;;5034382;28;20468;-65
2021/12/27 03:40:05;;;;;;;4.33;3.50;;;;;;;;;;5033825;28;20410;-66
2021/12/27 03:42:31;;;;;;;4.27;3.40;;;;;;;;;;5034047;28;20831;-65
2021/12/27 03:44:57;;;;;;;4.57;3.47;;;;;;;;;;5033776;28;20892;-65
2021/12/27 03:47:23;;;;;;;4.73;3.33;;;;;;;;;;5033713;28;20407;-66
2021/12/27 03:49:49;;;;;;;3.50;2.97;;;;;;;;;;5033532;28;20461;-66
2021/12/27 03:52:15;;;;;;;3.00;2.70;;;;;;;;;;5033495;28;20501;-66
2021/12/27 03:54:41;;;;;;;3.60;2.93;;;;;;;;;;5033802;28;20409;-66
2021/12/27 03:57:07;;;;;;;3.20;2.90;;;;;;;;;;5033487;28;20395;-65
2021/12/27 03:59:49;;;;;;;3.50;2.43;;;;;;;;;;5032713;28;20884;-66
2021/12/27 04:02:16;;;;;;;3.43;2.50;;;;;;;;;;5033673;28;20472;-65
2021/12/27 04:04:42;;;;;;;4.30;3.17;;;;;;;;;;5033638;28;20490;-66
2021/12/27 04:07:09;;;;;;;3.70;3.13;;;;;;;;;;5033314;28;20406;-66
2021/12/27 04:09:38;;;;;;;4.33;2.90;;;;;;;;;;5033239;28;20533;-66
2021/12/27 04:12:05;;;;;;;3.70;3.17;;;;;;;;;;5033298;28;20763;-66
2021/12/27 04:14:31;;;;;;;2.77;2.53;;;;;;;;;;5033293;28;20395;-66
2021/12/27 04:16:57;;;;;;;3.67;2.93;;;;;;;;;;5031972;28;20406;-67
2021/12/27 04:19:23;;;;;;;4.20;2.90;;;;;;;;;;5033195;28;20494;-67
2021/12/27 04:21:49;;;;;;;4.27;3.37;;;;;;;;;;5022965;28;20438;-65
2021/12/27 04:24:15;;;;;;;3.03;2.73;;;;;;;;;;5019224;28;20498;-66
2021/12/27 04:26:41;;;;;;;2.67;2.40;;;;;;;;;;5013379;28;20411;-66
2021/12/27 04:29:07;;;;;;;3.47;2.80;;;;;;;;;;5013107;28;20466;-66
2021/12/27 04:31:33;;;;;;;4.27;2.80;;;;;;;;;;5013314;28;20403;-66
2021/12/27 04:33:59;;;;;;;3.90;2.47;;;;;;;;;;5013368;28;20407;-66
2021/12/27 04:36:25;;;;;;;4.30;2.90;;;;;;;;;;5013929;28;20802;-66
2021/12/27 04:38:51;;;;;;;4.87;3.17;;;;;;;;;;5013429;28;20400;-66
2021/12/27 04:41:19;;;;;;;2.80;2.27;;;;;;;;;;5013374;28;20400;-66
2021/12/27 04:43:46;;;;;;;5.23;2.37;;;;;;;;;;5013304;28;20427;-66
2021/12/27 04:46:12;;;;;;;2.90;2.60;;;;;;;;;;5013275;28;20411;-65
2021/12/27 04:48:38;;;;;;;3.00;2.30;;;;;;;;;;5013210;28;20451;-65
2021/12/27 04:51:04;;;;;;;3.57;2.47;;;;;;;;;;5013149;28;20439;-65
2021/12/27 04:53:30;;;;;;;2.83;2.57;;;;;;;;;;5013238;28;20423;-66
2021/12/27 04:55:56;;;;;;;1.90;1.70;;;;;;;;;;5013174;28;20415;-66
2021/12/27 04:58:23;;;;;;;3.27;2.60;;;;;;;;;;5028345;28;20907;-65
2021/12/27 05:00:49;;;;;;;2.80;2.40;;;;;;;;;;5013734;28;20438;-66
2021/12/27 05:03:15;;;;;;;7.73;2.50;;;;;;;;;;5029379;28;20434;-66
2021/12/27 05:05:44;;;;;;;2.67;2.47;;;;;;;;;;5033116;28;20801;-66
2021/12/27 05:08:10;;;;;;;2.77;2.50;;;;;;;;;;5032747;28;20410;-66
2021/12/27 05:10:36;;;;;;;3.20;2.40;;;;;;;;;;5033335;28;20545;-66
2021/12/27 05:13:03;;;;;;;3.10;2.37;;;;;;;;;;5036779;28;20786;-65
2021/12/27 05:15:29;;;;;;;3.37;2.50;;;;;;;;;;5036449;28;20407;-66
2021/12/27 05:17:55;;;;;;;5.10;2.43;;;;;;;;;;5036572;28;20403;-66
2021/12/27 05:20:21;;;;;;;3.80;2.60;;;;;;;;;;5036475;28;20876;-66
2021/12/27 05:22:47;;;;;;;2.80;2.33;;;;;;;;;;5036223;28;20454;-67
2021/12/27 05:25:16;;;;;;;3.30;2.77;;;;;;;;;;5036325;28;20452;-66
2021/12/27 05:27:42;;;;;;;2.90;2.27;;;;;;;;;;5036159;28;20410;-67
2021/12/27 05:30:09;;;;;;;3.30;2.20;;;;;;;;;;5035023;28;20876;-66
2021/12/27 05:32:35;;;;;;;3.10;2.27;;;;;;;;;;5036123;28;20836;-67
2021/12/27 05:35:02;;;;;;;2.60;2.30;;;;;;;;;;5036391;28;20402;-66
2021/12/27 05:37:28;;;;;;;4.43;2.30;;;;;;;;;;5036300;28;20409;-66
2021/12/27 05:39:54;;;;;;;2.63;2.10;;;;;;;;;;5036411;28;20431;-66
2021/12/27 05:42:20;;;;;;;3.10;2.30;;;;;;;;;;5036235;28;20419;-66
2021/12/27 05:44:46;;;;;;;5.40;2.60;;;;;;;;;;5035983;28;20767;-66
2021/12/27 05:47:12;;;;;;;2.53;2.17;;;;;;;;;;5036134;28;20564;-66
2021/12/27 05:49:38;;;;;;;3.37;2.80;;;;;;;;;;5036228;28;20927;-66
2021/12/27 05:52:05;;;;;;;3.73;2.27;;;;;;;;;;5036147;28;20441;-66
2021/12/27 05:54:31;;;;;;;3.53;2.60;;;;;;;;;;5036164;28;20421;-66
2021/12/27 05:56:57;;;;;;;2.40;2.10;;;;;;;;;;5036141;28;20399;-66
2021/12/27 05:59:23;;;;;;;3.90;2.73;;;;;;;;;;5035676;28;20411;-66
2021/12/27 06:01:49;;;;;;;3.77;2.90;;;;;;;;;;5035542;28;20415;-66
2021/12/27 06:04:15;;;;;;;2.90;2.57;;;;;;;;;;5035923;28;20407;-66
2021/12/27 06:06:41;;;;;;;3.27;2.43;;;;;;;;;;5035860;28;20407;-66
2021/12/27 06:09:07;;;;;;;4.00;3.10;;;;;;;;;;5035499;28;20455;-66
2021/12/27 06:11:33;;;;;;;2.83;2.47;;;;;;;;;;5035424;28;20399;-66
2021/12/27 06:13:59;;;;;;;4.03;2.93;;;;;;;;;;5035728;28;20422;-66
2021/12/27 06:16:25;;;;;;;3.00;2.57;;;;;;;;;;5035363;28;20399;-66
2021/12/27 06:18:51;;;;;;;3.77;2.33;;;;;;;;;;5035331;28;20438;-66
2021/12/27 06:21:17;;;;;;;3.90;2.63;;;;;;;;;;5035373;28;21011;-66
2021/12/27 06:23:44;;;;;;;2.83;2.43;;;;;;;;;;5034464;28;20422;-66
2021/12/27 06:26:10;;;;;;;3.07;2.40;;;;;;;;;;5035456;28;20414;-66
2021/12/27 06:28:36;;;;;;;5.43;3.07;;;;;;;;;;5035135;28;20425;-66
2021/12/27 06:31:02;;;;;;;3.77;2.60;;;;;;;;;;5035034;28;20456;-65
2021/12/27 06:33:29;;;;;;;4.03;3.07;;;;;;;;;;5035282;28;20453;-66
2021/12/27 06:35:55;;;;;;;2.67;2.27;;;;;;;;;;5035831;28;20419;-66
2021/12/27 06:38:22;;;;;;;3.00;2.37;;;;;;;;;;5035191;28;20715;-66
2021/12/27 06:40:51;;;;;;;2.90;2.27;;;;;;;;;;5035082;28;20399;-66
2021/12/27 06:43:17;;;;;;;2.60;2.10;;;;;;;;;;5035062;28;20430;-65
2021/12/27 06:45:44;;;;;;;3.40;2.67;;;;;;;;;;5035095;28;20478;-66
2021/12/27 06:48:10;;;;;;;2.50;1.97;;;;;;;;;;5035056;28;20406;-66
2021/12/27 06:50:36;;;;;;;2.80;2.47;;;;;;;;;;5034853;28;20473;-66
2021/12/27 06:53:02;;;;;;;2.40;2.00;;;;;;;;;;5034745;28;20481;-66
2021/12/27 06:55:29;;;;;;;4.37;2.73;;;;;;;;;;5035519;28;20407;-67
2021/12/27 06:57:55;;;;;;;2.97;2.57;;;;;;;;;;5034635;28;20403;-66
2021/12/27 07:00:21;;;;;;;4.33;2.80;;;;;;;;;;5034826;28;20410;-66
2021/12/27 07:02:47;;;;;;;2.90;2.60;;;;;;;;;;5034666;28;20454;-66
2021/12/27 07:05:13;;;;;;;3.70;2.53;;;;;;;;;;5034471;28;20403;-67
2021/12/27 07:07:39;;;;;;;2.50;2.10;;;;;;;;;;5034768;28;20470;-67
2021/12/27 07:10:07;;;;;;;3.10;2.67;;;;;;;;;;5034340;28;20935;-66
2021/12/27 07:12:33;;;;;;;2.90;2.40;;;;;;;;;;5034248;28;20427;-66
2021/12/27 07:14:59;;;;;;;3.60;2.60;;;;;;;;;;5034188;28;20426;-66
2021/12/27 07:17:26;;;;;;;3.93;2.93;;;;;;;;;;5034806;28;20406;-66
2021/12/27 07:19:52;;;;;;;3.10;2.70;;;;;;;;;;5034096;28;20801;-67
2021/12/27 07:22:18;;;;;;;3.80;2.47;;;;;;;;;;5033792;28;20423;-65
2021/12/27 07:24:44;;;;;;;8.27;2.83;;;;;;;;;;5034035;28;20446;-66
2021/12/27 07:27:11;;;;;;;4.43;2.77;;;;;;;;;;5034333;28;20410;-65
2021/12/27 07:29:37;;;;;;;3.90;2.90;;;;;;;;;;5033850;28;20470;-66
2021/12/27 07:32:03;;;;;;;7.03;4.40;;;;;;;;;;5033869;28;20427;-66
2021/12/27 07:34:30;;;;;;;4.07;2.83;;;;;;;;;;5033905;28;20552;-66
2021/12/27 07:36:56;;;;;;;3.23;2.40;;;;;;;;;;5034094;28;20406;-65
2021/12/27 07:39:23;;;;;;;4.13;2.63;;;;;;;;;;5033790;28;20441;-66
2021/12/27 07:41:49;;;;;;;4.10;2.77;;;;;;;;;;5033891;28;20766;-66
2021/12/27 07:44:15;;;;;;;2.63;2.37;;;;;;;;;;5033849;28;20879;-66
2021/12/27 07:46:42;;;;;;;4.00;2.40;;;;;;;;;;5033855;28;20765;-66
2021/12/27 07:49:11;;;;;;;3.67;3.10;;;;;;;;;;5033852;28;20806;-66
2021/12/27 07:51:38;;;;;;;2.77;2.27;;;;;;;;;;5033531;28;20422;-66
2021/12/27 07:54:04;;;;;;;5.53;3.20;;;;;;;;;;5033762;28;20494;-66
2021/12/27 07:56:30;;;;;;;2.73;2.00;;;;;;;;;;5033630;28;20484;-66
2021/12/27 07:58:56;;;;;;;3.97;2.47;;;;;;;;;;5033820;28;20415;-66
2021/12/27 08:01:22;;;;;;;6.90;2.67;;;;;;;;;;5033378;28;20406;-66
2021/12/27 08:03:49;;;;;;;5.10;2.50;;;;;;;;;;5032891;28;20488;-66
2021/12/27 08:06:15;;;;;;;2.83;2.53;;;;;;;;;;5033363;28;20422;-66
2021/12/27 08:08:41;;;;;;;3.90;2.40;;;;;;;;;;5031235;28;20907;-66
2021/12/27 08:11:07;;;;;;;3.23;2.50;;;;;;;;;;5032280;28;20445;-64
2021/12/27 08:13:33;;;;;;;5.50;2.70;;;;;;;;;;5033250;28;20978;-65
2021/12/27 08:16:00;;;;;;;4.20;2.40;;;;;;;;;;5032680;28;20414;-63
2021/12/27 08:18:26;;;;;;;2.57;2.10;;;;;;;;;;5033603;28;20403;-65
2021/12/27 08:20:52;;;;;;;3.43;2.80;;;;;;;;;;5032895;28;20417;-65
2021/12/27 08:23:18;;;;;;;3.13;2.63;;;;;;;;;;5033157;28;20430;-65
2021/12/27 08:25:44;;;;;;;3.50;2.53;;;;;;;;;;5032110;28;20414;-65
2021/12/27 08:28:10;;;;;;;3.20;2.40;;;;;;;;;;5033292;28;20457;-66
2021/12/27 08:30:36;;;;;;;4.80;2.93;;;;;;;;;;5035698;28;20449;-65
2021/12/27 08:33:02;;;;;;;4.27;2.77;;;;;;;;;;5033499;28;20801;-62
2021/12/27 08:35:29;;;;;;;4.60;2.57;;;;;;;;;;5033104;28;20891;-62
2021/12/27 08:37:55;;;;;;;7.47;2.90;;;;;;;;;;5033176;28;20845;-62
2021/12/27 08:40:21;;;;;;;4.00;3.40;;;;;;;;;;5033116;28;20402;-61
2021/12/27 08:42:47;;;;;;;8.90;3.30;;;;;;;;;;5033770;28;20438;-58
2021/12/27 08:45:13;;;;;;;4.60;3.30;;;;;;;;;;5033058;28;20413;-65
2021/12/27 08:47:39;;;;;;;3.83;2.93;;;;;;;;;;5037172;28;20175;-63
2021/12/27 08:50:06;;;;;;;6.17;4.00;;;;;;;;;;5037141;28;21046;-63
2021/12/27 08:52:33;;;;;;;6.60;3.40;;;;;;;;;;5037207;28;20935;-65
2021/12/27 08:55:02;;;;;;;4.60;3.70;;;;;;;;;;5036852;28;20406;-64
2021/12/27 08:57:28;;;;;;;6.70;3.60;;;;;;;;;;5036470;28;20403;-63
2021/12/27 08:59:54;;;;;;;3.88;3.50;;;;;;;;;;5037220;28;20381;-63
2021/12/27 09:02:20;;;;;;;6.30;4.33;;;;;;;;;;5038027;28;20294;-61
2021/12/27 09:04:46;;;;;;;6.80;4.77;;;;;;;;;;5036973;28;20472;-58
2021/12/27 09:07:12;;;;;;;5.90;4.17;;;;;;;;;;5034951;28;20410;-61
2021/12/27 09:09:39;;;;;;;5.93;3.93;;;;;;;;;;5037545;28;20487;-64
2021/12/27 09:12:06;;;;;;;5.63;3.80;;;;;;;;;;5051921;28;20476;-62
2021/12/27 09:14:32;;;;;;;4.28;3.22;;;;;;;;;;5045013;28;20802;-66
2021/12/27 09:16:58;;;;;;;5.40;4.40;;;;;;;;;;5051996;28;20179;-66
2021/12/27 09:19:24;;;;;;;4.97;4.50;;;;;;;;;;5036723;28;20910;-66
2021/12/27 09:21:52;;;;;;;7.10;4.13;;;;;;;;;;5036467;28;20403;-60
2021/12/27 09:24:18;;;;;;;6.43;4.67;;;;;;;;;;5039714;28;20422;-63
2021/12/27 09:26:44;;;;;;;9.57;4.47;;;;;;;;;;5054795;28;20743;-63
2021/12/27 09:29:11;;;;;;;5.67;3.27;;;;;;;;;;5057185;28;20450;-63
2021/12/27 09:31:37;;;;;;;6.07;3.90;;;;;;;;;;5035231;28;20417;-61
2021/12/27 09:34:04;;;;;;;6.70;4.10;;;;;;;;;;5033988;28;20429;-64
2021/12/27 09:36:30;;;;;;;5.30;3.63;;;;;;;;;;5058070;28;20406;-64
2021/12/27 09:38:56;;;;;;;4.85;3.80;;;;;;;;;;5040013;28;20473;-66
2021/12/27 09:41:24;;;;;;;4.60;3.97;;;;;;;;;;5043356;28;20177;-66
2021/12/27 09:43:50;;;;;;;6.23;4.43;;;;;;;;;;5056091;28;20414;-66
2021/12/27 09:46:17;;;;;;;6.00;4.20;;;;;;;;;;5056182;28;20398;-65
2021/12/27 09:48:44;;;;;;;6.03;3.90;;;;;;;;;;5056186;28;20741;-63
2021/12/27 09:51:10;;;;;;;5.63;4.00;;;;;;;;;;5049081;28;20403;-65
2021/12/27 09:53:37;;;;;;;4.57;3.20;;;;;;;;;;5037323;28;20414;-66
2021/12/27 09:56:06;;;;;;;4.60;3.90;;;;;;;;;;5032547;28;20548;-64
2021/12/27 09:58:32;;;;;;;7.23;3.67;;;;;;;;;;5034761;28;20737;-63
2021/12/27 10:01:02;;;;;;;4.63;3.70;;;;;;;;;;5036039;28;20768;-66
2021/12/27 10:03:29;;;;;;;5.10;3.65;;;;;;;;;;5015886;28;20403;-62
2021/12/27 10:05:55;;;;;;;7.70;3.20;;;;;;;;;;5016198;28;20169;-59
2021/12/27 10:08:21;;;;;;;4.33;3.00;;;;;;;;;;5025597;28;20498;-63
2021/12/27 10:10:47;;;;;;;6.20;3.23;;;;;;;;;;5040123;28;20466;-64
2021/12/27 10:13:13;;;;;;;3.33;3.00;;;;;;;;;;5039934;28;20842;-60
2021/12/27 10:15:41;;;;;;;4.85;3.20;;;;;;;;;;5034043;28;20407;-62
2021/12/27 10:18:09;;;;;;;3.97;3.07;;;;;;;;;;5035327;28;20201;-62
2021/12/27 10:20:35;;;;;;;5.30;2.87;;;;;;;;;;5034536;28;20399;-62
2021/12/27 10:23:01;;;;;;;10.73;3.30;;;;;;;;;;5033185;28;20434;-60
2021/12/27 10:25:28;;;;;;;6.00;3.07;;;;;;;;;;5034977;28;20418;-58
2021/12/27 10:27:59;;;;;;;3.87;2.97;;;;;;;;;;5034672;28;20842;-58
2021/12/27 10:30:29;;;;;;;4.07;2.80;;;;;;;;;;5034939;28;20446;-57
2021/12/27 10:33:18;;;;;;;5.10;2.80;;;;;;;;;;5034761;28;20442;-62
2021/12/27 10:35:46;;;;;;;6.40;2.40;;;;;;;;;;5033191;28;20413;-63
2021/12/27 10:38:25;;;;;;;4.30;2.77;;;;;;;;;;5034775;28;20175;-64
2021/12/27 10:40:51;;;;;;;3.90;2.67;;;;;;;;;;5034971;28;20897;-68
2021/12/27 10:43:18;;;;;;;2.67;2.17;;;;;;;;;;5034388;28;20437;-64
2021/12/27 10:45:47;;;;;;;2.30;1.97;;;;;;;;;;5035179;28;20414;-67
2021/12/27 10:48:23;;;;;;;2.60;2.40;;;;;;;;;;5038055;28;20464;-66
2021/12/27 10:50:49;;;;;;;2.90;2.53;;;;;;;;;;5036939;28;20461;-64
2021/12/27 10:53:16;;;;;;;5.23;3.03;;;;;;;;;;5034455;28;20434;-67
2021/12/27 10:55:47;;;;;;;2.67;2.47;;;;;;;;;;5035816;28;20435;-64
2021/12/27 10:58:14;;;;;;;3.80;2.80;;;;;;;;;;5036462;28;20449;-63
2021/12/27 11:00:40;;;;;;;3.60;2.40;;;;;;;;;;5035000;28;20759;-61
2021/12/27 11:03:06;;;;;;;3.95;2.00;;;;;;;;;;5034231;28;20418;-64
2021/12/27 11:05:34;;;;;;;4.60;2.90;;;;;;;;;;5034146;28;20416;-64
2021/12/27 11:08:03;;;;;;;3.13;2.27;;;;;;;;;;5034074;28;20243;-65
2021/12/27 11:10:30;;;;;;;3.93;2.87;;;;;;;;;;5032496;28;20450;-65
2021/12/27 11:12:59;;;;;;;3.97;2.63;;;;;;;;;;5034435;28;20773;-63
2021/12/27 11:15:30;;;;;;;3.13;2.40;;;;;;;;;;5034384;28;20457;-65
2021/12/27 11:17:56;;;;;;;3.95;2.60;;;;;;;;;;5036988;28;20398;-65
2021/12/27 11:20:23;;;;;;;4.30;2.40;;;;;;;;;;5034100;28;20294;-62
2021/12/27 11:22:50;;;;;;;2.70;2.27;;;;;;;;;;5033964;28;20453;-65
2021/12/27 11:25:36;;;;;;;5.10;3.03;;;;;;;;;;5033145;28;20415;-61
2021/12/27 11:28:04;;;;;;;3.40;2.20;;;;;;;;;;5033305;28;20415;-67
2021/12/27 11:30:32;;;;;;;4.10;2.60;;;;;;;;;;5034541;28;20668;-66
2021/12/27 11:33:04;;;;;;;4.80;3.13;;;;;;;;;;5035630;28;20491;-66
2021/12/27 11:35:35;;;;;;;4.60;3.00;;;;;;;;;;5034599;28;20460;-66
2021/12/27 11:38:01;;;;;;;6.00;2.63;;;;;;;;;;5034887;28;20402;-66
2021/12/27 11:40:39;;;;;;;4.50;3.63;;;;;;;;;;5034565;28;20419;-67
2021/12/27 11:43:05;;;;;;;4.27;3.40;;;;;;;;;;5033539;28;20477;-66
2021/12/27 11:45:42;;;;;;;4.60;3.50;;;;;;;;;;5034360;28;20766;-66
2021/12/27 11:48:10;;;;;;;5.07;4.20;;;;;;;;;;5037331;28;20402;-66
2021/12/27 11:51:03;;;;;;;4.47;3.50;;;;;;;;;;5036660;28;20537;-66
2021/12/27 11:53:29;;;;;;;8.17;4.17;;;;;;;;;;5035545;28;20567;-65
2021/12/27 11:55:55;;;;;;;6.63;4.07;;;;;;;;;;5033766;28;20407;-66
2021/12/27 11:58:35;;;;;;;5.03;3.73;;;;;;;;;;5033797;28;20771;-66
2021/12/27 12:01:02;;;;;;;5.07;3.37;;;;;;;;;;5034057;28;20395;-66
2021/12/27 12:03:37;;;;;;;3.90;3.50;;;;;;;;;;5033314;28;20821;-66
2021/12/27 12:06:04;;;;;;;5.53;3.50;;;;;;;;;;5033590;28;20445;-65
2021/12/27 12:08:39;;;;;;;6.80;3.73;;;;;;;;;;5031713;28;20406;-68
2021/12/27 12:11:10;;;;;;;6.30;4.47;;;;;;;;;;5033379;28;20431;-66
2021/12/27 12:13:49;;;;;;;4.07;3.00;;;;;;;;;;5032979;28;20479;-66
2021/12/27 12:16:19;;;;;;;3.60;3.13;;;;;;;;;;5032832;28;20422;-67
2021/12/27 12:18:51;;;;;;;4.57;3.70;;;;;;;;;;5013889;28;20475;-66
2021/12/27 12:21:36;;;;;;;5.70;3.70;;;;;;;;;;5020863;28;20449;-66
2021/12/27 12:24:02;;;;;;;4.47;3.30;;;;;;;;;;5033167;28;20398;-67
2021/12/27 12:26:28;;;;;;;5.90;3.30;;;;;;;;;;5033210;28;20444;-67
2021/12/27 12:29:01;;;;;;;4.10;3.00;;;;;;;;;;5032798;28;20536;-66
2021/12/27 12:31:31;;;;;;;4.63;3.40;;;;;;;;;;5032600;28;20414;-66
2021/12/27 12:34:15;;;;;;;4.30;2.80;;;;;;;;;;5030909;28;20414;-66
2021/12/27 12:36:45;;;;;;;4.50;2.60;;;;;;;;;;5035566;28;20172;-67
2021/12/27 12:39:11;;;;;;;3.03;2.73;;;;;;;;;;5032969;28;20417;-66
2021/12/27 12:41:37;;;;;;;3.00;2.53;;;;;;;;;;5032828;28;20397;-64
2021/12/27 12:44:03;;;;;;;4.40;2.60;;;;;;;;;;5033081;28;20418;-68
2021/12/27 12:46:30;;;;;;;3.47;2.50;;;;;;;;;;5034546;28;20172;-66
2021/12/27 12:49:01;;;;;;;3.37;2.23;;;;;;;;;;5035094;28;20855;-63
2021/12/27 12:51:30;;;;;;;2.73;2.10;;;;;;;;;;5033331;28;20762;-67
2021/12/27 12:53:56;;;;;;;3.43;2.27;;;;;;;;;;5030581;28;20437;-66
2021/12/27 12:56:28;;;;;;;3.70;1.97;;;;;;;;;;5032403;28;20432;-65
2021/12/27 12:58:54;;;;;;;3.47;2.33;;;;;;;;;;5032994;28;20386;-66
2021/12/27 13:01:20;;;;;;;3.43;2.43;;;;;;;;;;5033063;28;20812;-64
2021/12/27 13:03:46;;;;;;;3.97;2.60;;;;;;;;;;5033057;28;20454;-65
2021/12/27 13:06:12;;;;;;;3.80;2.60;;;;;;;;;;5033063;28;20402;-65
2021/12/27 13:08:38;;;;;;;3.10;2.23;;;;;;;;;;5032849;28;20411;-64
2021/12/27 13:11:04;;;;;;;2.90;2.60;;;;;;;;;;5032808;28;20426;-65
2021/12/27 13:13:32;;;;;;;2.90;2.07;;;;;;;;;;5032546;28;20417;-64
2021/12/27 13:16:03;;;;;;;3.30;2.30;;;;;;;;;;5033060;28;20966;-64
2021/12/27 13:18:33;;;;;;;4.30;2.77;;;;;;;;;;5032824;28;20417;-64
2021/12/27 13:21:07;;;;;;;2.17;1.83;;;;;;;;;;5032807;28;20765;-65
2021/12/27 13:23:36;;;;;;;3.63;2.27;;;;;;;;;;5032690;28;20414;-65
2021/12/27 13:26:06;;;;;;;4.00;2.70;;;;;;;;;;5032647;28;20407;-65
2021/12/27 13:28:34;;;;;;;3.70;3.00;;;;;;;;;;5032696;28;20430;-65
2021/12/27 13:31:00;;;;;;;5.00;2.40;;;;;;;;;;5032891;28;20418;-66
2021/12/27 13:33:26;;;;;;;4.77;3.43;;;;;;;;;;5036123;28;20430;-65
2021/12/27 13:35:53;;;;;;;4.80;3.00;;;;;;;;;;5036186;28;20907;-65
2021/12/27 13:38:21;;;;;;;5.73;4.43;;;;;;;;;;5036452;28;20402;-65
2021/12/27 13:40:48;;;;;;;5.57;3.03;;;;;;;;;;5036441;28;20406;-66
2021/12/27 13:43:14;;;;;;;4.13;3.70;;;;;;;;;;5035986;28;20410;-66
2021/12/27 13:45:42;;;;;;;3.83;2.27;;;;;;;;;;5036022;28;20394;-64
2021/12/27 13:48:12;;;;;;;4.00;2.63;;;;;;;;;;5036265;28;20482;-65
2021/12/27 13:50:39;;;;;;;7.77;3.37;;;;;;;;;;5036130;28;20484;-65
2021/12/27 13:53:16;;;;;;;2.90;2.10;;;;;;;;;;5036217;28;20441;-66
2021/12/27 13:55:43;;;;;;;6.10;4.67;;;;;;;;;;5036133;28;20469;-65
2021/12/27 13:58:35;;;;;;;4.30;2.43;;;;;;;;;;5036251;28;20478;-65
2021/12/27 14:01:09;;;;;;;5.30;3.03;;;;;;;;;;5031795;28;20423;-66
2021/12/27 14:03:35;;;;;;;3.70;2.80;;;;;;;;;;5034222;28;20465;-66
2021/12/27 14:06:02;;;;;;;14.60;3.07;;;;;;;;;;5034150;28;20418;-66
2021/12/27 14:08:30;;;;;;;4.77;3.07;;;;;;;;;;5036320;28;20410;-65
2021/12/27 14:11:12;;;;;;;3.33;2.90;;;;;;;;;;5035827;28;20454;-65
2021/12/27 14:13:54;;;;;;;10.93;7.20;;;;;;;;;;5035593;28;20464;-66
2021/12/27 14:16:26;;;;;;;14.93;9.90;;;;;;;;;;5035265;28;20414;-66
2021/12/27 14:19:01;;;;;;;20.93;11.37;;;;;;;;;;5035269;28;20415;-67
2021/12/27 14:21:27;;;;;;;15.50;12.17;;;;;;;;;;5035426;28;20420;-65
2021/12/27 14:24:04;;;;;;;15.33;12.40;;;;;;;;;;5035267;28;20784;-65
2021/12/27 14:26:30;;;;;;;16.03;12.63;;;;;;;;;;5034944;28;20422;-66
2021/12/27 14:29:15;;;;;;;16.63;12.70;;;;;;;;;;5036387;28;20506;-64
2021/12/27 14:31:41;;;;;;;15.00;12.20;;;;;;;;;;5037258;28;20414;-66
2021/12/27 14:34:07;;;;;;;14.57;11.97;;;;;;;;;;5039819;28;20441;-66
2021/12/27 14:36:33;;;;;;;19.07;14.07;;;;;;;;;;5039926;28;20404;-63
2021/12/27 14:38:59;;;;;;;18.87;15.20;;;;;;;;;;5040063;28;20394;-65
2021/12/27 14:41:25;;;;;;;19.70;15.60;;;;;;;;;;5037551;28;20498;-65
2021/12/27 14:43:51;;;;;;;18.90;15.57;;;;;;;;;;5034705;28;20442;-65
2021/12/27 14:46:17;;;;;;;21.50;16.07;;;;;;;;;;5039357;28;20405;-65
2021/12/27 14:48:43;;;;;;;22.47;17.10;;;;;;;;;;5036221;28;20414;-66